sensor_id;sensor_type;location;lat;lon;timestamp;temperature;humidity
17632;DHT22;8934;51.194;17.150;2023-05-29T00:01:40;7.00;99.90
17632;DHT22;8934;51.194;17.150;2023-05-29T00:04:28;7.00;99.90
17632;DHT22;8934;51.194;17.150;2023-05-29T00:07:16;6.90;99.90
17632;DHT22;8934;51.194;17.150;2023-05-29T00:10:05;6.90;99.90
17632;DHT22;8934;51.194;17.150;2023-05-29T00:12:52;6.90;99.90
17632;DHT22;8934;51.194;17.150;2023-05-29T00:15:42;6.80;99.90
17632;DHT22;8934;51.194;17.150;2023-05-29T00:18:32;6.80;99.90
17632;DHT22;8934;51.194;17.150;2023-05-29T00:21:20;6.80;99.90
17632;DHT22;8934;51.194;17.150;2023-05-29T00:24:09;6.70;99.90
17632;DHT22;8934;51.194;17.150;2023-05-29T00:26:56;6.70;99.90
17632;DHT22;8934;51.194;17.150;2023-05-29T00:29:45;6.70;99.90
17632;DHT22;8934;51.194;17.150;2023-05-29T00:32:32;6.60;99.90
17632;DHT22;8934;51.194;17.150;2023-05-29T00:35:22;6.60;99.90
17632;DHT22;8934;51.194;17.150;2023-05-29T00:38:09;6.60;99.90
17632;DHT22;8934;51.194;17.150;2023-05-29T00:40:57;6.50;99.90
17632;DHT22;8934;51.194;17.150;2023-05-29T00:43:45;6.50;99.90
17632;DHT22;8934;51.194;17.150;2023-05-29T00:46:33;6.40;99.90
17632;DHT22;8934;51.194;17.150;2023-05-29T00:49:21;6.40;99.90
17632;DHT22;8934;51.194;17.150;2023-05-29T00:52:11;6.40;99.90
17632;DHT22;8934;51.194;17.150;2023-05-29T00:55:00;6.40;99.90
17632;DHT22;8934;51.194;17.150;2023-05-29T00:57:49;6.30;99.90
17632;DHT22;8934;51.194;17.150;2023-05-29T01:00:36;6.30;99.90
17632;DHT22;8934;51.194;17.150;2023-05-29T01:03:25;6.30;99.90
17632;DHT22;8934;51.194;17.150;2023-05-29T01:06:14;6.20;99.90
17632;DHT22;8934;51.194;17.150;2023-05-29T01:09:05;6.20;99.90
17632;DHT22;8934;51.194;17.150;2023-05-29T01:11:59;6.20;99.90
17632;DHT22;8934;51.194;17.150;2023-05-29T01:15:03;6.10;99.90
17632;DHT22;8934;51.194;17.150;2023-05-29T01:21:11;6.10;99.90
17632;DHT22;8934;51.194;17.150;2023-05-29T01:24:13;6.00;99.90
17632;DHT22;8934;51.194;17.150;2023-05-29T01:27:05;6.00;99.90
17632;DHT22;8934;51.194;17.150;2023-05-29T01:29:57;6.00;99.90
17632;DHT22;8934;51.194;17.150;2023-05-29T01:32:48;6.00;99.90
17632;DHT22;8934;51.194;17.150;2023-05-29T01:35:36;5.90;99.90
17632;DHT22;8934;51.194;17.150;2023-05-29T01:38:23;5.90;99.90
17632;DHT22;8934;51.194;17.150;2023-05-29T01:41:11;5.90;99.90
17632;DHT22;8934;51.194;17.150;2023-05-29T01:44:02;5.90;99.90
17632;DHT22;8934;51.194;17.150;2023-05-29T01:46:51;5.80;99.90
17632;DHT22;8934;51.194;17.150;2023-05-29T01:49:39;5.80;99.90
17632;DHT22;8934;51.194;17.150;2023-05-29T01:52:28;5.80;99.90
17632;DHT22;8934;51.194;17.150;2023-05-29T01:55:16;5.80;99.90
17632;DHT22;8934;51.194;17.150;2023-05-29T01:58:04;5.80;99.90
17632;DHT22;8934;51.194;17.150;2023-05-29T02:00:55;5.80;99.90
17632;DHT22;8934;51.194;17.150;2023-05-29T02:03:43;5.70;99.90
17632;DHT22;8934;51.194;17.150;2023-05-29T02:06:30;5.70;99.90
17632;DHT22;8934;51.194;17.150;2023-05-29T02:09:20;5.70;99.90
17632;DHT22;8934;51.194;17.150;2023-05-29T02:12:09;5.60;99.90
17632;DHT22;8934;51.194;17.150;2023-05-29T02:14:56;5.60;99.90
17632;DHT22;8934;51.194;17.150;2023-05-29T02:17:47;5.60;99.90
17632;DHT22;8934;51.194;17.150;2023-05-29T02:20:35;5.60;99.90
17632;DHT22;8934;51.194;17.150;2023-05-29T02:23:23;5.60;99.90
17632;DHT22;8934;51.194;17.150;2023-05-29T02:26:12;5.60;99.90
17632;DHT22;8934;51.194;17.150;2023-05-29T02:29:01;5.50;99.90
17632;DHT22;8934;51.194;17.150;2023-05-29T02:31:49;5.50;99.90
17632;DHT22;8934;51.194;17.150;2023-05-29T02:34:38;5.50;99.90
17632;DHT22;8934;51.194;17.150;2023-05-29T02:37:26;5.40;99.90
17632;DHT22;8934;51.194;17.150;2023-05-29T02:40:14;5.40;99.90
17632;DHT22;8934;51.194;17.150;2023-05-29T02:43:01;5.40;99.90
17632;DHT22;8934;51.194;17.150;2023-05-29T02:45:50;5.30;99.90
17632;DHT22;8934;51.194;17.150;2023-05-29T02:48:38;5.30;99.90
17632;DHT22;8934;51.194;17.150;2023-05-29T02:51:27;5.30;99.90
17632;DHT22;8934;51.194;17.150;2023-05-29T02:54:14;5.30;99.90
17632;DHT22;8934;51.194;17.150;2023-05-29T02:57:02;5.30;99.90
17632;DHT22;8934;51.194;17.150;2023-05-29T02:59:51;5.30;99.90
17632;DHT22;8934;51.194;17.150;2023-05-29T03:02:38;5.30;99.90
17632;DHT22;8934;51.194;17.150;2023-05-29T03:05:26;5.30;99.90
17632;DHT22;8934;51.194;17.150;2023-05-29T03:08:15;5.30;99.90
17632;DHT22;8934;51.194;17.150;2023-05-29T03:11:04;5.30;99.90
17632;DHT22;8934;51.194;17.150;2023-05-29T03:13:51;5.30;99.90
17632;DHT22;8934;51.194;17.150;2023-05-29T03:16:39;5.30;99.90
17632;DHT22;8934;51.194;17.150;2023-05-29T03:19:28;5.30;99.90
17632;DHT22;8934;51.194;17.150;2023-05-29T03:22:15;5.40;99.90
17632;DHT22;8934;51.194;17.150;2023-05-29T03:25:05;5.40;99.90
17632;DHT22;8934;51.194;17.150;2023-05-29T03:27:53;5.50;99.90
17632;DHT22;8934;51.194;17.150;2023-05-29T03:30:42;5.50;99.90
17632;DHT22;8934;51.194;17.150;2023-05-29T03:33:33;5.50;99.90
17632;DHT22;8934;51.194;17.150;2023-05-29T03:36:32;5.50;99.90
17632;DHT22;8934;51.194;17.150;2023-05-29T03:39:22;5.60;99.90
17632;DHT22;8934;51.194;17.150;2023-05-29T03:42:13;5.60;99.90
17632;DHT22;8934;51.194;17.150;2023-05-29T03:45:01;5.70;99.90
17632;DHT22;8934;51.194;17.150;2023-05-29T03:47:50;5.70;99.90
17632;DHT22;8934;51.194;17.150;2023-05-29T03:50:38;5.80;99.90
17632;DHT22;8934;51.194;17.150;2023-05-29T03:53:26;5.90;99.90
17632;DHT22;8934;51.194;17.150;2023-05-29T03:56:14;6.00;99.90
17632;DHT22;8934;51.194;17.150;2023-05-29T03:59:03;6.10;99.90
17632;DHT22;8934;51.194;17.150;2023-05-29T04:01:51;6.20;99.90
17632;DHT22;8934;51.194;17.150;2023-05-29T04:04:39;6.30;99.90
17632;DHT22;8934;51.194;17.150;2023-05-29T04:07:26;6.50;99.90
17632;DHT22;8934;51.194;17.150;2023-05-29T04:10:14;6.60;99.90
17632;DHT22;8934;51.194;17.150;2023-05-29T04:13:02;6.70;99.90
17632;DHT22;8934;51.194;17.150;2023-05-29T04:15:51;6.80;99.90
17632;DHT22;8934;51.194;17.150;2023-05-29T04:18:40;6.90;99.90
17632;DHT22;8934;51.194;17.150;2023-05-29T04:21:28;7.10;99.90
17632;DHT22;8934;51.194;17.150;2023-05-29T04:24:19;7.20;99.90
17632;DHT22;8934;51.194;17.150;2023-05-29T04:27:06;7.40;99.90
17632;DHT22;8934;51.194;17.150;2023-05-29T04:29:55;7.50;99.90
17632;DHT22;8934;51.194;17.150;2023-05-29T04:32:45;7.60;99.90
17632;DHT22;8934;51.194;17.150;2023-05-29T04:35:35;7.80;99.90
17632;DHT22;8934;51.194;17.150;2023-05-29T04:38:26;7.90;99.90
17632;DHT22;8934;51.194;17.150;2023-05-29T04:41:15;8.10;99.90
17632;DHT22;8934;51.194;17.150;2023-05-29T04:44:03;8.30;99.90
17632;DHT22;8934;51.194;17.150;2023-05-29T04:47:00;8.40;99.90
17632;DHT22;8934;51.194;17.150;2023-05-29T04:49:50;8.60;99.90
17632;DHT22;8934;51.194;17.150;2023-05-29T04:52:38;8.80;99.90
17632;DHT22;8934;51.194;17.150;2023-05-29T04:55:27;8.90;99.90
17632;DHT22;8934;51.194;17.150;2023-05-29T04:58:15;9.10;99.90
17632;DHT22;8934;51.194;17.150;2023-05-29T05:01:03;9.30;99.90
17632;DHT22;8934;51.194;17.150;2023-05-29T05:03:52;9.50;99.90
17632;DHT22;8934;51.194;17.150;2023-05-29T05:06:43;9.80;99.90
17632;DHT22;8934;51.194;17.150;2023-05-29T05:09:31;10.00;99.90
17632;DHT22;8934;51.194;17.150;2023-05-29T05:12:21;10.30;99.90
17632;DHT22;8934;51.194;17.150;2023-05-29T05:15:09;10.60;99.90
17632;DHT22;8934;51.194;17.150;2023-05-29T05:17:57;10.80;99.90
17632;DHT22;8934;51.194;17.150;2023-05-29T05:20:45;11.00;99.90
17632;DHT22;8934;51.194;17.150;2023-05-29T05:23:34;11.20;99.90
17632;DHT22;8934;51.194;17.150;2023-05-29T05:26:42;11.40;99.90
17632;DHT22;8934;51.194;17.150;2023-05-29T05:29:30;11.60;99.90
17632;DHT22;8934;51.194;17.150;2023-05-29T05:32:17;11.80;99.90
17632;DHT22;8934;51.194;17.150;2023-05-29T05:35:10;12.00;99.90
17632;DHT22;8934;51.194;17.150;2023-05-29T05:37:58;12.20;99.90
17632;DHT22;8934;51.194;17.150;2023-05-29T05:40:48;12.50;99.90
17632;DHT22;8934;51.194;17.150;2023-05-29T05:43:42;12.70;99.90
17632;DHT22;8934;51.194;17.150;2023-05-29T05:46:41;13.00;99.90
17632;DHT22;8934;51.194;17.150;2023-05-29T05:49:28;13.20;99.90
17632;DHT22;8934;51.194;17.150;2023-05-29T05:52:16;13.40;99.90
17632;DHT22;8934;51.194;17.150;2023-05-29T05:55:04;13.60;99.90
17632;DHT22;8934;51.194;17.150;2023-05-29T05:57:54;13.90;99.90
17632;DHT22;8934;51.194;17.150;2023-05-29T06:00:42;14.10;99.90
17632;DHT22;8934;51.194;17.150;2023-05-29T06:03:30;14.30;99.90
17632;DHT22;8934;51.194;17.150;2023-05-29T06:06:22;14.50;99.90
17632;DHT22;8934;51.194;17.150;2023-05-29T06:09:09;14.70;99.90
17632;DHT22;8934;51.194;17.150;2023-05-29T06:11:58;14.80;99.90
17632;DHT22;8934;51.194;17.150;2023-05-29T06:14:49;15.00;99.90
17632;DHT22;8934;51.194;17.150;2023-05-29T06:17:37;15.20;99.90
17632;DHT22;8934;51.194;17.150;2023-05-29T06:20:26;15.40;99.90
17632;DHT22;8934;51.194;17.150;2023-05-29T06:23:14;15.60;99.90
17632;DHT22;8934;51.194;17.150;2023-05-29T06:26:02;15.70;99.90
17632;DHT22;8934;51.194;17.150;2023-05-29T06:28:51;15.90;99.90
17632;DHT22;8934;51.194;17.150;2023-05-29T06:31:40;16.10;99.90
17632;DHT22;8934;51.194;17.150;2023-05-29T06:34:27;16.30;99.90
17632;DHT22;8934;51.194;17.150;2023-05-29T06:37:15;16.50;99.90
17632;DHT22;8934;51.194;17.150;2023-05-29T06:40:04;16.60;99.90
17632;DHT22;8934;51.194;17.150;2023-05-29T06:42:53;16.70;99.90
17632;DHT22;8934;51.194;17.150;2023-05-29T06:45:54;16.80;99.90
17632;DHT22;8934;51.194;17.150;2023-05-29T06:48:43;17.00;99.90
17632;DHT22;8934;51.194;17.150;2023-05-29T06:51:33;17.10;99.90
17632;DHT22;8934;51.194;17.150;2023-05-29T06:54:40;17.20;99.90
17632;DHT22;8934;51.194;17.150;2023-05-29T06:57:28;17.40;99.90
17632;DHT22;8934;51.194;17.150;2023-05-29T07:00:17;17.60;99.90
17632;DHT22;8934;51.194;17.150;2023-05-29T07:03:15;17.80;99.90
17632;DHT22;8934;51.194;17.150;2023-05-29T07:06:05;18.00;99.90
17632;DHT22;8934;51.194;17.150;2023-05-29T07:08:54;18.20;99.90
17632;DHT22;8934;51.194;17.150;2023-05-29T07:11:42;18.40;99.90
17632;DHT22;8934;51.194;17.150;2023-05-29T07:14:30;18.50;99.90
17632;DHT22;8934;51.194;17.150;2023-05-29T07:17:17;18.60;99.90
17632;DHT22;8934;51.194;17.150;2023-05-29T07:20:10;18.80;99.90
17632;DHT22;8934;51.194;17.150;2023-05-29T07:23:00;19.00;99.90
17632;DHT22;8934;51.194;17.150;2023-05-29T07:25:48;19.30;99.90
17632;DHT22;8934;51.194;17.150;2023-05-29T07:28:36;19.40;99.90
17632;DHT22;8934;51.194;17.150;2023-05-29T07:31:23;19.60;99.90
17632;DHT22;8934;51.194;17.150;2023-05-29T07:34:11;19.80;99.90
17632;DHT22;8934;51.194;17.150;2023-05-29T07:37:01;19.90;99.90
17632;DHT22;8934;51.194;17.150;2023-05-29T07:39:51;20.10;99.90
17632;DHT22;8934;51.194;17.150;2023-05-29T07:42:58;20.20;99.90
17632;DHT22;8934;51.194;17.150;2023-05-29T07:45:56;20.40;99.90
17632;DHT22;8934;51.194;17.150;2023-05-29T07:48:44;20.50;99.90
17632;DHT22;8934;51.194;17.150;2023-05-29T07:51:32;20.70;99.90
17632;DHT22;8934;51.194;17.150;2023-05-29T07:54:21;20.90;99.90
17632;DHT22;8934;51.194;17.150;2023-05-29T07:57:10;21.10;99.90
17632;DHT22;8934;51.194;17.150;2023-05-29T08:00:01;21.30;99.90
17632;DHT22;8934;51.194;17.150;2023-05-29T08:03:04;21.40;97.00
17632;DHT22;8934;51.194;17.150;2023-05-29T08:05:52;21.50;97.40
17632;DHT22;8934;51.194;17.150;2023-05-29T08:08:40;21.60;95.90
17632;DHT22;8934;51.194;17.150;2023-05-29T08:11:29;21.60;94.40
17632;DHT22;8934;51.194;17.150;2023-05-29T08:14:18;21.70;94.00
17632;DHT22;8934;51.194;17.150;2023-05-29T08:17:06;21.90;95.80
17632;DHT22;8934;51.194;17.150;2023-05-29T08:19:54;22.00;88.40
17632;DHT22;8934;51.194;17.150;2023-05-29T08:22:42;21.90;92.00
17632;DHT22;8934;51.194;17.150;2023-05-29T08:25:30;21.90;91.10
17632;DHT22;8934;51.194;17.150;2023-05-29T08:28:18;21.90;90.30
17632;DHT22;8934;51.194;17.150;2023-05-29T08:31:06;22.10;91.40
17632;DHT22;8934;51.194;17.150;2023-05-29T08:33:54;22.40;93.10
17632;DHT22;8934;51.194;17.150;2023-05-29T08:36:42;22.50;92.20
17632;DHT22;8934;51.194;17.150;2023-05-29T08:39:31;22.70;92.30
17632;DHT22;8934;51.194;17.150;2023-05-29T08:42:21;22.60;91.80
17632;DHT22;8934;51.194;17.150;2023-05-29T08:45:15;22.60;90.80
17632;DHT22;8934;51.194;17.150;2023-05-29T08:48:09;22.50;89.30
17632;DHT22;8934;51.194;17.150;2023-05-29T08:50:58;22.40;93.30
17632;DHT22;8934;51.194;17.150;2023-05-29T08:53:46;22.50;92.00
17632;DHT22;8934;51.194;17.150;2023-05-29T08:56:35;22.70;93.30
17632;DHT22;8934;51.194;17.150;2023-05-29T08:59:22;22.80;90.20
17632;DHT22;8934;51.194;17.150;2023-05-29T09:02:11;22.60;90.80
17632;DHT22;8934;51.194;17.150;2023-05-29T09:05:01;22.60;91.50
17632;DHT22;8934;51.194;17.150;2023-05-29T09:07:48;22.70;91.60
17632;DHT22;8934;51.194;17.150;2023-05-29T09:10:37;23.00;91.90
17632;DHT22;8934;51.194;17.150;2023-05-29T09:13:25;23.10;91.40
17632;DHT22;8934;51.194;17.150;2023-05-29T09:16:16;23.20;91.40
17632;DHT22;8934;51.194;17.150;2023-05-29T09:19:06;23.60;92.10
17632;DHT22;8934;51.194;17.150;2023-05-29T09:22:05;24.10;90.90
17632;DHT22;8934;51.194;17.150;2023-05-29T09:24:54;24.20;87.00
17632;DHT22;8934;51.194;17.150;2023-05-29T09:27:42;24.00;88.70
17632;DHT22;8934;51.194;17.150;2023-05-29T09:30:34;24.10;89.20
17632;DHT22;8934;51.194;17.150;2023-05-29T09:33:22;24.30;86.00
17632;DHT22;8934;51.194;17.150;2023-05-29T09:36:19;24.20;87.00
17632;DHT22;8934;51.194;17.150;2023-05-29T09:39:08;24.30;91.80
17632;DHT22;8934;51.194;17.150;2023-05-29T09:42:04;24.50;90.40
17632;DHT22;8934;51.194;17.150;2023-05-29T09:44:52;24.60;86.30
17632;DHT22;8934;51.194;17.150;2023-05-29T09:47:40;24.60;86.50
17632;DHT22;8934;51.194;17.150;2023-05-29T09:50:28;24.80;85.10
17632;DHT22;8934;51.194;17.150;2023-05-29T09:53:17;25.10;84.60
17632;DHT22;8934;51.194;17.150;2023-05-29T09:56:11;25.10;85.10
17632;DHT22;8934;51.194;17.150;2023-05-29T09:59:02;24.90;81.90
17632;DHT22;8934;51.194;17.150;2023-05-29T10:01:55;24.80;84.00
17632;DHT22;8934;51.194;17.150;2023-05-29T10:04:47;25.10;82.70
17632;DHT22;8934;51.194;17.150;2023-05-29T10:07:36;25.10;78.60
17632;DHT22;8934;51.194;17.150;2023-05-29T10:10:25;25.40;84.90
17632;DHT22;8934;51.194;17.150;2023-05-29T10:13:15;25.60;82.70
17632;DHT22;8934;51.194;17.150;2023-05-29T10:16:07;25.80;84.60
17632;DHT22;8934;51.194;17.150;2023-05-29T10:18:56;25.70;80.70
17632;DHT22;8934;51.194;17.150;2023-05-29T10:21:46;25.70;81.70
17632;DHT22;8934;51.194;17.150;2023-05-29T10:24:36;25.90;79.70
17632;DHT22;8934;51.194;17.150;2023-05-29T10:27:25;26.10;78.20
17632;DHT22;8934;51.194;17.150;2023-05-29T10:30:24;26.20;81.60
17632;DHT22;8934;51.194;17.150;2023-05-29T10:33:31;26.20;80.40
17632;DHT22;8934;51.194;17.150;2023-05-29T10:36:22;25.90;77.80
17632;DHT22;8934;51.194;17.150;2023-05-29T10:39:13;25.70;82.60
17632;DHT22;8934;51.194;17.150;2023-05-29T10:42:00;26.20;83.10
17632;DHT22;8934;51.194;17.150;2023-05-29T10:44:48;26.50;77.20
17632;DHT22;8934;51.194;17.150;2023-05-29T10:47:37;26.40;76.50
17632;DHT22;8934;51.194;17.150;2023-05-29T10:50:36;26.70;77.80
17632;DHT22;8934;51.194;17.150;2023-05-29T10:53:25;27.00;78.70
17632;DHT22;8934;51.194;17.150;2023-05-29T10:56:21;27.10;75.60
17632;DHT22;8934;51.194;17.150;2023-05-29T10:59:10;27.00;72.10
17632;DHT22;8934;51.194;17.150;2023-05-29T11:01:58;26.80;73.70
17632;DHT22;8934;51.194;17.150;2023-05-29T11:05:06;26.60;72.80
17632;DHT22;8934;51.194;17.150;2023-05-29T11:08:05;26.50;73.60
17632;DHT22;8934;51.194;17.150;2023-05-29T11:10:56;27.00;74.40
17632;DHT22;8934;51.194;17.150;2023-05-29T11:13:52;27.30;75.20
17632;DHT22;8934;51.194;17.150;2023-05-29T11:16:40;27.50;71.80
17632;DHT22;8934;51.194;17.150;2023-05-29T11:19:28;27.70;75.00
17632;DHT22;8934;51.194;17.150;2023-05-29T11:22:22;27.80;71.40
17632;DHT22;8934;51.194;17.150;2023-05-29T11:25:13;27.40;71.70
17632;DHT22;8934;51.194;17.150;2023-05-29T11:28:00;27.60;69.10
17632;DHT22;8934;51.194;17.150;2023-05-29T11:30:58;27.60;71.10
17632;DHT22;8934;51.194;17.150;2023-05-29T11:33:48;27.30;74.40
17632;DHT22;8934;51.194;17.150;2023-05-29T11:36:37;27.80;74.60
17632;DHT22;8934;51.194;17.150;2023-05-29T11:39:25;28.10;69.80
17632;DHT22;8934;51.194;17.150;2023-05-29T11:42:13;27.90;71.40
17632;DHT22;8934;51.194;17.150;2023-05-29T11:45:12;27.70;73.30
17632;DHT22;8934;51.194;17.150;2023-05-29T11:48:02;27.70;70.40
17632;DHT22;8934;51.194;17.150;2023-05-29T11:50:50;27.50;72.10
17632;DHT22;8934;51.194;17.150;2023-05-29T11:53:40;27.40;71.80
17632;DHT22;8934;51.194;17.150;2023-05-29T11:56:29;27.20;69.40
17632;DHT22;8934;51.194;17.150;2023-05-29T11:59:16;27.30;77.20
17632;DHT22;8934;51.194;17.150;2023-05-29T12:02:04;27.80;72.10
17632;DHT22;8934;51.194;17.150;2023-05-29T12:05:01;27.60;72.20
17632;DHT22;8934;51.194;17.150;2023-05-29T12:07:50;27.30;71.70
17632;DHT22;8934;51.194;17.150;2023-05-29T12:10:46;27.50;70.90
17632;DHT22;8934;51.194;17.150;2023-05-29T12:13:34;27.80;69.40
17632;DHT22;8934;51.194;17.150;2023-05-29T12:16:23;28.30;72.40
17632;DHT22;8934;51.194;17.150;2023-05-29T12:19:12;28.80;71.60
17632;DHT22;8934;51.194;17.150;2023-05-29T12:22:01;29.30;67.50
17632;DHT22;8934;51.194;17.150;2023-05-29T12:24:49;29.40;71.20
17632;DHT22;8934;51.194;17.150;2023-05-29T12:27:38;29.10;71.50
17632;DHT22;8934;51.194;17.150;2023-05-29T12:30:28;29.10;69.80
17632;DHT22;8934;51.194;17.150;2023-05-29T12:33:28;28.80;69.60
17632;DHT22;8934;51.194;17.150;2023-05-29T12:36:16;29.20;71.60
17632;DHT22;8934;51.194;17.150;2023-05-29T12:39:07;29.50;65.00
17632;DHT22;8934;51.194;17.150;2023-05-29T12:41:56;29.40;67.90
17632;DHT22;8934;51.194;17.150;2023-05-29T12:44:43;29.60;66.10
17632;DHT22;8934;51.194;17.150;2023-05-29T12:47:31;29.50;66.50
17632;DHT22;8934;51.194;17.150;2023-05-29T12:50:22;29.00;67.30
17632;DHT22;8934;51.194;17.150;2023-05-29T12:53:10;28.80;65.90
17632;DHT22;8934;51.194;17.150;2023-05-29T12:55:59;28.20;68.10
17632;DHT22;8934;51.194;17.150;2023-05-29T12:58:50;27.90;68.10
17632;DHT22;8934;51.194;17.150;2023-05-29T13:01:39;27.80;69.00
17632;DHT22;8934;51.194;17.150;2023-05-29T13:04:27;28.20;70.40
17632;DHT22;8934;51.194;17.150;2023-05-29T13:07:14;28.70;68.00
17632;DHT22;8934;51.194;17.150;2023-05-29T13:10:02;28.70;67.00
17632;DHT22;8934;51.194;17.150;2023-05-29T13:12:52;28.70;70.90
17632;DHT22;8934;51.194;17.150;2023-05-29T13:15:41;28.70;71.30
17632;DHT22;8934;51.194;17.150;2023-05-29T13:18:28;28.20;67.80
17632;DHT22;8934;51.194;17.150;2023-05-29T13:21:15;27.60;69.20
17632;DHT22;8934;51.194;17.150;2023-05-29T13:24:03;27.30;67.50
17632;DHT22;8934;51.194;17.150;2023-05-29T13:26:51;27.10;68.20
17632;DHT22;8934;51.194;17.150;2023-05-29T13:29:40;27.40;65.90
17632;DHT22;8934;51.194;17.150;2023-05-29T13:32:27;27.50;70.00
17632;DHT22;8934;51.194;17.150;2023-05-29T13:35:15;27.70;69.40
17632;DHT22;8934;51.194;17.150;2023-05-29T13:38:03;28.00;71.00
17632;DHT22;8934;51.194;17.150;2023-05-29T13:40:50;28.20;69.00
17632;DHT22;8934;51.194;17.150;2023-05-29T13:43:38;28.00;63.90
17632;DHT22;8934;51.194;17.150;2023-05-29T13:46:31;28.00;68.80
17632;DHT22;8934;51.194;17.150;2023-05-29T13:49:19;28.70;68.60
17632;DHT22;8934;51.194;17.150;2023-05-29T13:52:07;29.00;67.60
17632;DHT22;8934;51.194;17.150;2023-05-29T13:54:54;28.90;63.20
17632;DHT22;8934;51.194;17.150;2023-05-29T13:57:44;28.40;65.90
17632;DHT22;8934;51.194;17.150;2023-05-29T14:00:32;28.40;68.50
17632;DHT22;8934;51.194;17.150;2023-05-29T14:03:20;28.60;69.20
17632;DHT22;8934;51.194;17.150;2023-05-29T14:06:10;28.40;67.30
17632;DHT22;8934;51.194;17.150;2023-05-29T14:08:58;28.30;66.60
17632;DHT22;8934;51.194;17.150;2023-05-29T14:11:45;28.50;65.50
17632;DHT22;8934;51.194;17.150;2023-05-29T14:14:35;28.80;68.20
17632;DHT22;8934;51.194;17.150;2023-05-29T14:17:25;29.30;63.40
17632;DHT22;8934;51.194;17.150;2023-05-29T14:20:14;29.50;63.50
17632;DHT22;8934;51.194;17.150;2023-05-29T14:23:02;30.00;66.00
17632;DHT22;8934;51.194;17.150;2023-05-29T14:25:49;29.90;65.40
17632;DHT22;8934;51.194;17.150;2023-05-29T14:28:37;30.20;63.80
17632;DHT22;8934;51.194;17.150;2023-05-29T14:31:25;28.90;62.70
17632;DHT22;8934;51.194;17.150;2023-05-29T14:34:13;27.90;65.20
17632;DHT22;8934;51.194;17.150;2023-05-29T14:37:02;27.10;65.50
17632;DHT22;8934;51.194;17.150;2023-05-29T14:39:50;26.50;70.60
17632;DHT22;8934;51.194;17.150;2023-05-29T14:42:37;26.80;70.80
17632;DHT22;8934;51.194;17.150;2023-05-29T14:45:25;27.60;68.30
17632;DHT22;8934;51.194;17.150;2023-05-29T14:48:12;28.60;66.10
17632;DHT22;8934;51.194;17.150;2023-05-29T14:51:02;29.40;68.00
17632;DHT22;8934;51.194;17.150;2023-05-29T14:53:51;29.60;65.10
17632;DHT22;8934;51.194;17.150;2023-05-29T14:56:39;29.30;66.10
17632;DHT22;8934;51.194;17.150;2023-05-29T14:59:26;28.40;65.10
17632;DHT22;8934;51.194;17.150;2023-05-29T15:02:14;27.30;68.70
17632;DHT22;8934;51.194;17.150;2023-05-29T15:05:01;26.40;70.20
17632;DHT22;8934;51.194;17.150;2023-05-29T15:07:49;26.20;73.70
17632;DHT22;8934;51.194;17.150;2023-05-29T15:10:37;26.60;74.70
17632;DHT22;8934;51.194;17.150;2023-05-29T15:13:25;27.50;72.40
17632;DHT22;8934;51.194;17.150;2023-05-29T15:16:13;27.90;69.30
17632;DHT22;8934;51.194;17.150;2023-05-29T15:19:00;28.00;70.80
17632;DHT22;8934;51.194;17.150;2023-05-29T15:21:48;27.90;72.20
17632;DHT22;8934;51.194;17.150;2023-05-29T15:24:35;27.50;72.60
17632;DHT22;8934;51.194;17.150;2023-05-29T15:27:25;26.90;69.20
17632;DHT22;8934;51.194;17.150;2023-05-29T15:30:18;26.30;70.70
17632;DHT22;8934;51.194;17.150;2023-05-29T15:33:06;25.70;73.60
17632;DHT22;8934;51.194;17.150;2023-05-29T15:35:55;25.60;76.30
17632;DHT22;8934;51.194;17.150;2023-05-29T15:38:43;26.00;72.80
17632;DHT22;8934;51.194;17.150;2023-05-29T15:41:30;26.70;72.60
17632;DHT22;8934;51.194;17.150;2023-05-29T15:44:19;27.10;73.40
17632;DHT22;8934;51.194;17.150;2023-05-29T15:47:07;27.50;74.80
17632;DHT22;8934;51.194;17.150;2023-05-29T15:49:54;27.70;71.40
17632;DHT22;8934;51.194;17.150;2023-05-29T15:52:42;27.60;70.50
17632;DHT22;8934;51.194;17.150;2023-05-29T15:55:41;27.40;75.00
17632;DHT22;8934;51.194;17.150;2023-05-29T15:58:29;27.30;73.00
17632;DHT22;8934;51.194;17.150;2023-05-29T16:01:18;27.20;73.60
17632;DHT22;8934;51.194;17.150;2023-05-29T16:04:05;27.10;74.00
17632;DHT22;8934;51.194;17.150;2023-05-29T16:06:53;26.90;72.80
17632;DHT22;8934;51.194;17.150;2023-05-29T16:09:41;25.90;73.60
17632;DHT22;8934;51.194;17.150;2023-05-29T16:12:30;25.10;77.10
17632;DHT22;8934;51.194;17.150;2023-05-29T16:15:18;25.20;77.10
17632;DHT22;8934;51.194;17.150;2023-05-29T16:18:07;25.40;76.80
17632;DHT22;8934;51.194;17.150;2023-05-29T16:20:55;25.40;75.30
17632;DHT22;8934;51.194;17.150;2023-05-29T16:23:42;25.30;76.60
17632;DHT22;8934;51.194;17.150;2023-05-29T16:26:30;25.20;77.30
17632;DHT22;8934;51.194;17.150;2023-05-29T16:29:21;25.10;76.90
17632;DHT22;8934;51.194;17.150;2023-05-29T16:32:09;25.00;78.90
17632;DHT22;8934;51.194;17.150;2023-05-29T16:34:59;24.90;78.90
17632;DHT22;8934;51.194;17.150;2023-05-29T16:37:46;25.10;80.70
17632;DHT22;8934;51.194;17.150;2023-05-29T16:40:34;25.50;78.90
17632;DHT22;8934;51.194;17.150;2023-05-29T16:43:21;25.60;76.90
17632;DHT22;8934;51.194;17.150;2023-05-29T16:46:09;25.50;78.70
17632;DHT22;8934;51.194;17.150;2023-05-29T16:48:57;25.10;78.60
17632;DHT22;8934;51.194;17.150;2023-05-29T16:51:46;24.60;78.90
17632;DHT22;8934;51.194;17.150;2023-05-29T16:54:34;24.40;80.60
17632;DHT22;8934;51.194;17.150;2023-05-29T16:57:25;24.40;81.60
17632;DHT22;8934;51.194;17.150;2023-05-29T17:00:13;24.70;82.00
17632;DHT22;8934;51.194;17.150;2023-05-29T17:03:01;25.20;82.00
17632;DHT22;8934;51.194;17.150;2023-05-29T17:05:50;25.30;79.00
17632;DHT22;8934;51.194;17.150;2023-05-29T17:08:39;25.20;79.60
17632;DHT22;8934;51.194;17.150;2023-05-29T17:11:26;24.80;80.00
17632;DHT22;8934;51.194;17.150;2023-05-29T17:14:14;24.60;83.20
17632;DHT22;8934;51.194;17.150;2023-05-29T17:17:02;24.70;83.50
17632;DHT22;8934;51.194;17.150;2023-05-29T17:19:50;24.90;83.80
17632;DHT22;8934;51.194;17.150;2023-05-29T17:22:38;24.80;83.60
17632;DHT22;8934;51.194;17.150;2023-05-29T17:25:26;24.80;82.80
17632;DHT22;8934;51.194;17.150;2023-05-29T17:28:14;24.80;82.70
17632;DHT22;8934;51.194;17.150;2023-05-29T17:31:02;25.10;81.80
17632;DHT22;8934;51.194;17.150;2023-05-29T17:33:50;25.10;80.50
17632;DHT22;8934;51.194;17.150;2023-05-29T17:36:38;25.20;81.30
17632;DHT22;8934;51.194;17.150;2023-05-29T17:39:25;25.20;81.10
17632;DHT22;8934;51.194;17.150;2023-05-29T17:42:14;25.10;80.50
17632;DHT22;8934;51.194;17.150;2023-05-29T17:45:02;24.70;81.50
17632;DHT22;8934;51.194;17.150;2023-05-29T17:47:50;24.20;82.40
17632;DHT22;8934;51.194;17.150;2023-05-29T17:50:37;23.40;84.00
17632;DHT22;8934;51.194;17.150;2023-05-29T17:53:25;22.90;85.30
17632;DHT22;8934;51.194;17.150;2023-05-29T17:56:13;22.50;86.30
17632;DHT22;8934;51.194;17.150;2023-05-29T17:59:02;22.30;87.90